.
WxDataArchive / Data Records for 2010-06-19
2010-06-18 June 2010 2010-06-20

Data Records for Saturday, 19 June 2010

Time	Temp	Chill	HIndex	Humid	Dewpt	 Wind 	HiWind	WindDir	Rain 	Barom 
-----	----	-----	------	-----	-----	------	------	-------	-----	----- 
00:00	66.1	66.1	66.1	93	64.0	0	0	---	0.00	29.941 
00:05	66.1	66.1	66.1	94	64.3	0	0	---	0.00	29.941 
00:10	66.0	66.0	66.0	94	64.2	0	0	---	0.00	29.941 
00:15	66.0	66.0	66.0	94	64.2	0	0	---	0.00	29.930 
00:20	66.0	66.0	66.0	94	64.2	0	0	---	0.00	29.930 
00:25	66.0	66.0	66.0	94	64.2	0	0	---	0.00	29.930 
00:30	66.0	66.0	66.0	94	64.2	0	0	---	0.00	29.929 
00:35	66.0	66.0	66.0	94	64.2	0	1	68	0.00	29.929 
00:40	66.1	66.1	66.1	94	64.3	0	0	---	0.00	29.929 
00:45	66.1	66.1	66.1	94	64.3	0	0	---	0.00	29.925 
00:50	66.3	66.3	66.3	94	64.5	0	2	68	0.00	29.925 
00:55	66.3	66.3	66.3	94	64.5	0	1	68	0.00	29.925 
01:00	66.4	66.4	66.4	94	64.6	0	1	68	0.00	29.903 
01:05	66.4	66.4	66.4	94	64.6	0	1	68	0.00	29.903 
01:10	66.4	66.4	66.4	94	64.6	0	1	68	0.00	29.903 
01:15	66.4	66.4	66.4	93	64.3	0	1	68	0.00	29.899 
01:20	66.6	66.6	66.6	93	64.5	0	3	68	0.00	29.899 
01:25	66.6	66.6	66.6	93	64.5	0	1	270	0.00	29.899 
01:30	66.8	66.8	66.8	92	64.4	0	2	270	0.00	29.897 
01:35	67.1	67.1	67.1	92	64.7	0	2	270	0.00	29.897 
01:40	67.3	67.3	67.3	92	64.9	0	0	---	0.00	29.897 
01:45	67.3	67.3	67.3	91	64.6	0	1	270	0.00	29.896 
01:50	67.3	67.3	67.3	91	64.6	0	1	270	0.00	29.896 
01:55	67.3	67.3	67.3	91	64.6	0	1	270	0.00	29.896 
02:00	67.3	67.3	67.3	91	64.6	0	1	270	0.00	29.895 
02:05	67.3	67.3	67.3	91	64.6	0	0	---	0.00	29.895 
02:10	67.4	67.4	67.4	90	64.4	1	5	270	0.00	29.895 
02:15	68.3	68.3	68.3	88	64.6	4	7	292	0.00	29.953 
02:20	68.6	68.6	68.6	87	64.6	2	6	248	0.00	29.953 
02:25	70.1	70.1	70.1	80	63.6	4	9	270	0.00	29.953 
02:30	70.9	70.9	70.9	78	63.7	3	10	270	0.00	29.956 
02:35	70.9	70.9	70.9	78	63.7	2	8	292	0.00	29.956 
02:40	69.9	69.9	69.9	82	64.1	2	5	292	0.00	29.956 
02:45	68.6	68.6	68.6	86	64.2	2	5	315	0.01	29.950 
02:50	67.9	67.9	67.9	88	64.2	2	4	315	0.02	29.950 
02:55	67.6	67.6	67.6	89	64.2	1	4	292	0.01	29.950 
03:00	67.4	67.4	67.4	90	64.4	1	5	270	0.01	29.962 
03:05	67.3	67.3	67.3	91	64.6	1	2	270	0.01	29.962 
03:10	67.3	67.3	67.3	92	64.9	1	4	292	0.01	29.962 
03:15	67.1	67.1	67.1	92	64.7	0	2	292	0.00	29.958 
03:20	67.1	67.1	67.1	92	64.7	0	2	292	0.01	29.958 
03:25	67.1	67.1	67.1	93	65.0	2	4	292	0.01	29.958 
03:30	67.1	67.1	67.1	93	65.0	1	4	292	0.00	29.961 
03:35	67.1	67.1	67.1	93	65.0	1	3	292	0.01	29.961 
03:40	67.1	67.1	67.1	94	65.3	1	3	292	0.00	29.961 
03:45	67.1	67.1	67.1	94	65.3	1	3	292	0.01	29.940 
03:50	67.1	67.1	67.1	94	65.3	1	3	292	0.01	29.940 
03:55	67.1	67.1	67.1	94	65.3	1	3	292	0.00	29.940 
04:00	67.1	67.1	67.1	94	65.3	1	3	292	0.01	29.930 
04:05	67.1	67.1	67.1	94	65.3	0	2	292	0.01	29.930 
04:10	67.1	67.1	67.1	94	65.3	0	1	292	0.00	29.930 
04:15	67.1	67.1	67.1	95	65.6	0	2	292	0.01	29.926 
04:20	67.1	67.1	67.1	95	65.6	0	3	225	0.00	29.926 
04:25	67.1	67.1	67.1	95	65.6	0	2	225	0.01	29.926 
04:30	67.1	67.1	67.1	95	65.6	0	3	225	0.01	29.914 
04:35	67.1	67.1	67.1	95	65.6	0	2	248	0.00	29.914 
04:40	67.1	67.1	67.1	95	65.6	0	2	248	0.01	29.914 
04:45	67.1	67.1	67.1	95	65.6	1	3	248	0.00	29.897 
04:50	67.1	67.1	67.1	95	65.6	0	2	68	0.01	29.897 
04:55	67.3	67.3	67.3	95	65.8	1	3	68	0.00	29.897 
05:00	67.3	67.3	67.3	95	65.8	3	6	90	0.00	29.862 
05:05	67.3	67.3	67.3	95	65.8	3	6	112	0.01	29.862 
05:10	67.3	67.3	67.3	95	65.8	2	5	112	0.00	29.862 
05:15	67.3	67.3	67.3	95	65.8	1	3	90	0.01	29.862 
05:20	67.3	67.3	67.3	95	65.8	1	6	112	0.00	29.862 
05:25	67.3	67.3	67.3	95	65.8	1	3	68	0.00	29.862 
05:30	67.3	67.3	67.3	95	65.8	1	3	112	0.00	29.838 
05:35	67.3	67.3	67.3	95	65.8	2	5	112	0.01	29.838 
05:40	67.3	67.3	67.3	95	65.8	0	4	45	0.00	29.838 
05:45	67.3	67.3	67.3	95	65.8	1	3	90	0.00	29.839 
05:50	67.3	67.3	67.3	95	65.8	0	2	90	0.00	29.839 
05:55	67.3	67.3	67.3	95	65.8	0	1	90	0.01	29.839 
06:00	67.3	67.3	67.3	95	65.8	0	2	315	0.00	29.839 
06:05	67.3	67.3	67.3	95	65.8	0	1	315	0.00	29.839 
06:10	67.3	67.3	67.3	95	65.8	0	2	315	0.00	29.839 
06:15	67.4	67.4	67.4	95	65.9	0	1	315	0.00	29.865 
06:20	67.4	67.4	67.4	95	65.9	0	0	---	0.00	29.865 
06:25	67.4	67.4	67.4	95	65.9	0	0	---	0.00	29.865 
06:30	67.4	67.4	67.4	95	65.9	0	0	---	0.00	29.856 
06:35	67.3	67.3	67.3	95	65.8	0	0	---	0.00	29.856 
06:40	67.4	67.4	67.4	95	65.9	0	1	315	0.00	29.856 
06:45	67.4	67.4	67.4	95	65.9	0	0	---	0.00	29.881 
06:50	67.4	67.4	67.4	95	65.9	0	0	---	0.00	29.881 
06:55	67.6	67.6	67.6	95	66.1	0	1	315	0.00	29.881 
07:00	67.8	67.8	67.8	95	66.3	0	1	315	0.00	29.910 
07:05	67.8	67.8	67.8	95	66.3	0	1	315	0.00	29.910 
07:10	67.9	67.9	67.9	95	66.4	1	3	315	0.00	29.910 
07:15	67.9	67.9	67.9	95	66.4	0	2	0	0.00	29.930 
07:20	67.9	67.9	67.9	95	66.4	0	2	0	0.00	29.930 
07:25	68.1	68.1	68.1	95	66.6	1	3	0	0.00	29.930 
07:30	68.1	68.1	68.1	95	66.6	1	2	338	0.00	29.935 
07:35	68.4	68.4	68.4	95	66.9	0	1	338	0.00	29.935 
07:40	68.9	68.9	68.9	95	67.4	0	1	338	0.00	29.935 
07:45	68.9	68.9	68.9	94	67.1	1	3	248	0.00	29.919 
07:50	68.9	68.9	68.9	93	66.8	0	2	248	0.00	29.919 
07:55	68.8	68.8	68.8	93	66.7	0	1	248	0.00	29.919 
08:00	68.9	68.9	68.9	93	66.8	0	0	---	0.00	29.924 
08:05	69.3	69.3	69.3	93	67.2	0	2	248	0.00	29.924 
08:10	69.8	69.8	69.8	93	67.7	0	2	248	0.00	29.924 
08:15	70.4	70.4	70.4	92	68.0	0	1	248	0.00	29.941 
08:20	70.8	70.8	70.8	92	68.4	1	3	248	0.00	29.941 
08:25	71.1	71.1	71.1	90	68.0	1	2	248	0.00	29.941 
08:30	71.6	71.6	71.6	89	68.2	1	3	248	0.00	29.939 
08:35	72.0	72.0	72.0	87	67.9	1	3	315	0.00	29.939 
08:40	72.5	72.5	72.5	87	68.4	1	3	315	0.00	29.939 
08:45	72.8	72.8	72.8	84	67.7	1	3	315	0.00	29.941 
08:50	73.0	73.0	73.0	83	67.5	1	3	315	0.00	29.941 
08:55	73.3	73.3	73.3	81	67.1	1	3	315	0.00	29.941 
09:00	73.9	73.9	73.9	82	68.0	1	3	315	0.00	29.943 
09:05	74.2	74.2	74.2	80	67.6	1	3	292	0.00	29.943 
09:10	74.7	74.7	74.7	78	67.4	1	3	292	0.00	29.943 
09:15	75.1	75.1	76.0	78	67.8	1	3	292	0.00	29.953 
09:20	75.4	75.4	76.3	78	68.0	1	3	292	0.00	29.953 
09:25	75.4	75.4	76.6	75	66.9	2	5	292	0.00	29.953 
09:30	75.6	75.6	76.8	76	67.5	2	4	270	0.00	29.957 
09:35	75.6	75.6	76.9	75	67.1	2	5	270	0.00	29.957 
09:40	75.6	75.6	76.9	75	67.1	3	5	270	0.00	29.957 
09:45	75.8	75.8	77.1	75	67.3	2	4	270	0.00	29.957 
09:50	76.0	76.0	77.4	74	67.1	2	5	270	0.00	29.957 
09:55	76.3	76.3	77.7	75	67.8	1	3	292	0.00	29.957 
10:00	76.5	76.5	78.0	75	68.0	2	3	315	0.00	29.954 
10:05	76.7	76.7	78.3	74	67.8	2	4	292	0.00	29.954 
10:10	77.2	77.2	79.0	73	67.9	1	3	270	0.00	29.954 
10:15	77.2	77.2	79.0	72	67.5	3	5	292	0.00	29.953 
10:20	77.4	77.4	79.3	72	67.6	2	4	270	0.00	29.953 
10:25	77.7	77.7	79.7	72	67.9	2	5	270	0.00	29.953 
10:30	77.9	77.9	79.9	69	66.9	3	5	270	0.00	29.952 
10:35	77.9	77.9	79.8	68	66.5	3	5	270	0.00	29.952 
10:40	78.5	78.5	80.8	71	68.3	1	4	292	0.00	29.952 
10:45	78.6	78.6	80.7	68	67.1	2	4	292	0.00	29.950 
10:50	78.8	78.8	81.1	69	67.7	2	5	270	0.00	29.950 
10:55	78.8	78.8	81.0	68	67.3	2	5	270	0.00	29.950 
11:00	79.0	79.0	81.3	68	67.5	2	4	270	0.00	29.948 
11:05	79.2	79.2	81.5	67	67.3	3	5	292	0.00	29.948 
11:10	79.2	79.2	81.4	66	66.8	3	7	270	0.00	29.948 
11:15	79.2	79.2	81.4	66	66.8	3	7	292	0.00	29.953 
11:20	79.0	79.0	81.2	67	67.1	3	7	270	0.00	29.953 
11:25	79.0	79.0	81.1	66	66.6	3	7	270	0.00	29.953 
11:30	79.2	79.2	81.2	64	65.9	3	7	270	0.00	29.955 
11:35	79.6	79.6	81.8	65	66.8	2	4	270	0.00	29.955 
11:40	79.8	79.8	82.0	64	66.5	3	5	292	0.00	29.955 
11:45	80.1	80.1	82.0	61	65.4	3	5	292	0.00	29.957 
11:50	80.3	80.3	82.3	61	65.6	3	6	270	0.00	29.957 
11:55	80.5	80.5	82.5	61	65.8	2	5	248	0.00	29.957 
12:00	80.3	80.3	82.1	59	64.6	4	7	270	0.00	29.951 
12:05	80.3	80.3	82.2	60	65.1	3	5	270	0.00	29.951 
12:10	80.5	80.5	82.4	60	65.3	3	5	270	0.00	29.951 
12:15	80.7	80.7	82.7	60	65.5	2	6	292	0.00	29.950 
12:20	80.5	80.5	82.4	60	65.3	3	6	270	0.00	29.950 
12:25	80.5	80.5	82.4	60	65.3	3	7	270	0.00	29.950 
12:30	80.5	80.5	82.2	58	64.3	3	6	270	0.00	29.951 
12:35	80.9	80.9	82.7	58	64.7	3	5	270	0.00	29.951 
12:40	81.1	81.1	83.3	61	66.4	3	5	270	0.00	29.951 
12:45	81.1	81.1	83.0	59	65.4	2	4	292	0.00	29.949 
12:50	81.2	81.2	83.2	59	65.5	2	4	292	0.00	29.949 
12:55	81.2	81.2	83.0	58	65.0	2	5	292	0.00	29.949 
13:00	81.6	81.6	83.7	59	65.9	2	4	270	0.00	29.948 
13:05	81.8	81.8	84.5	62	67.5	2	3	292	0.00	29.948 
13:10	81.8	81.8	84.0	59	66.0	2	5	292	0.00	29.948 
13:15	81.6	81.6	83.5	58	65.4	2	5	292	0.00	29.947 
13:20	81.8	81.8	84.7	63	67.9	2	4	315	0.00	29.947 
13:25	81.6	81.6	83.5	58	65.4	3	5	270	0.00	29.947 
13:30	81.4	81.4	83.4	59	65.7	3	5	270	0.00	29.946 
13:35	81.6	81.6	83.7	59	65.9	3	5	292	0.00	29.946 
13:40	81.6	81.6	83.9	60	66.3	3	5	270	0.00	29.946 
13:45	81.6	81.6	84.2	62	67.3	2	4	270	0.00	29.939 
13:50	81.8	81.8	84.0	59	66.0	2	5	270	0.00	29.939 
13:55	82.0	82.0	84.1	58	65.7	2	4	225	0.00	29.939 
14:00	82.2	82.2	85.1	62	67.9	2	6	292	0.00	29.942 
14:05	82.6	82.6	84.9	58	66.3	2	5	292	0.00	29.942 
14:10	82.8	82.8	85.2	58	66.5	2	7	270	0.00	29.942 
14:15	82.4	82.4	85.2	61	67.6	2	6	292	0.00	29.946 
14:20	82.2	82.2	84.7	60	66.9	3	6	270	0.00	29.946 
14:25	81.8	81.8	84.7	63	67.9	2	6	315	0.00	29.946 
14:30	81.6	81.6	84.2	62	67.3	2	7	315	0.00	29.942 
14:35	81.6	81.6	84.0	61	66.8	3	6	270	0.00	29.942 
14:40	81.2	81.2	83.8	63	67.4	2	5	270	0.00	29.942 
14:45	81.4	81.4	83.8	61	66.6	3	7	270	0.00	29.945 
14:50	81.2	81.2	83.5	61	66.4	3	6	292	0.00	29.945 
14:55	81.1	81.1	83.3	61	66.4	3	5	270	0.00	29.945 
15:00	81.4	81.4	83.9	62	67.1	2	6	270	0.00	29.945 
15:05	81.8	81.8	83.8	58	65.6	4	7	292	0.00	29.945 
15:10	81.8	81.8	84.1	60	66.5	3	9	292	0.00	29.945 
15:15	82.2	82.2	83.8	55	64.4	3	6	270	0.00	29.946 
15:20	82.4	82.4	83.7	53	63.5	4	7	270	0.00	29.946 
15:25	82.6	82.6	84.1	54	64.2	2	5	292	0.00	29.946 
15:30	82.6	82.6	84.1	54	64.2	3	6	270	0.00	29.947 
15:35	82.8	82.8	83.8	51	62.8	3	7	270	0.00	29.947 
15:40	83.0	83.0	83.9	50	62.4	2	5	315	0.00	29.947 
15:45	82.8	82.8	83.8	51	62.8	3	7	270	0.00	29.945 
15:50	82.8	82.8	84.0	52	63.3	3	5	270	0.00	29.945 
15:55	82.6	82.6	83.8	52	63.2	2	7	270	0.00	29.945 
16:00	82.6	82.6	84.3	55	64.8	2	5	270	0.00	29.947 
16:05	82.8	82.8	84.0	52	63.3	3	6	270	0.00	29.947 
16:10	82.6	82.6	83.6	51	62.6	2	7	315	0.00	29.947 
16:15	82.6	82.6	83.8	52	63.2	2	4	270	0.00	29.950 
16:20	83.0	83.0	83.9	50	62.4	2	5	270	0.00	29.950 
16:25	83.0	83.0	83.9	50	62.4	1	4	292	0.00	29.950 
16:30	82.6	82.6	83.4	50	62.0	1	4	292	0.00	29.947 
16:35	83.0	83.0	83.7	49	61.8	2	5	292	0.00	29.947 
16:40	83.2	83.2	83.8	48	61.4	3	5	270	0.00	29.947 
16:45	83.0	83.0	83.2	46	60.1	2	6	315	0.00	29.947 
16:50	83.2	83.2	84.1	50	62.6	2	5	270	0.00	29.947 
16:55	83.0	83.0	83.9	50	62.4	2	5	292	0.00	29.947 
17:00	83.6	83.6	85.0	52	64.1	1	3	292	0.00	29.946 
17:05	83.6	83.6	84.1	47	61.2	2	5	270	0.00	29.946 
17:10	83.6	83.6	84.2	48	61.8	2	5	270	0.00	29.946 
17:15	83.4	83.4	83.8	47	61.0	2	5	315	0.00	29.946 
17:20	83.6	83.6	84.1	47	61.2	2	4	270	0.00	29.946 
17:25	84.0	84.0	84.7	48	62.2	2	6	270	0.00	29.946 
17:30	84.0	84.0	84.5	47	61.6	2	4	270	0.00	29.944 
17:35	84.1	84.1	85.0	49	62.8	1	3	292	0.00	29.944 
17:40	84.1	84.1	84.6	47	61.7	2	6	270	0.00	29.944 
17:45	84.0	84.0	84.7	48	62.2	2	5	270	0.00	29.942 
17:50	84.0	84.0	84.3	46	61.0	2	4	315	0.00	29.942 
17:55	84.0	84.0	84.3	46	61.0	2	4	292	0.00	29.942 
18:00	84.0	84.0	84.3	46	61.0	1	2	292	0.00	29.940 
18:05	84.0	84.0	84.3	46	61.0	1	5	315	0.00	29.940 
18:10	84.1	84.1	84.1	44	59.8	2	5	292	0.00	29.940 
18:15	84.0	84.0	83.8	43	59.1	2	4	270	0.00	29.937 
18:20	84.0	84.0	83.8	43	59.1	2	6	248	0.00	29.937 
18:25	83.8	83.8	83.6	43	58.9	2	5	270	0.00	29.937 
18:30	83.6	83.6	83.4	43	58.7	3	4	270	0.00	29.941 
18:35	83.4	83.4	83.3	44	59.2	2	4	270	0.00	29.941 
18:40	83.4	83.4	83.3	44	59.2	1	4	292	0.00	29.941 
18:45	83.6	83.6	83.7	45	60.0	1	3	315	0.00	29.935 
18:50	83.6	83.6	83.7	45	60.0	1	3	315	0.00	29.935 
18:55	83.6	83.6	83.9	46	60.6	1	3	315	0.00	29.935 
19:00	83.4	83.4	83.8	47	61.0	0	2	315	0.00	29.932 
19:05	83.2	83.2	83.4	46	60.2	1	3	315	0.00	29.932 
19:10	82.8	82.8	83.3	48	61.1	1	4	315	0.00	29.932 
19:15	82.8	82.8	83.7	50	62.2	1	4	270	0.00	29.934 
19:20	82.8	82.8	83.8	51	62.8	0	3	270	0.00	29.934 
19:25	82.6	82.6	83.4	50	62.0	1	4	270	0.00	29.934 
19:30	82.6	82.6	83.3	49	61.5	1	4	270	0.00	29.934 
19:35	82.6	82.6	83.3	49	61.5	1	4	270	0.00	29.934 
19:40	82.6	82.6	83.1	48	60.9	1	3	315	0.00	29.934 
19:45	82.6	82.6	83.0	47	60.3	2	4	315	0.00	29.940 
19:50	82.4	82.4	82.7	47	60.1	2	5	292	0.00	29.940 
19:55	82.4	82.4	82.7	47	60.1	2	5	270	0.00	29.940 
20:00	82.0	82.0	82.3	47	59.8	2	5	292	0.00	29.943 
20:05	82.0	82.0	82.5	48	60.3	2	4	292	0.00	29.943 
20:10	81.8	81.8	82.3	48	60.2	1	3	292	0.00	29.943 
20:15	81.6	81.6	82.1	48	60.0	1	4	292	0.00	29.938 
20:20	81.4	81.4	81.9	48	59.8	1	3	292	0.00	29.938 
20:25	81.2	81.2	81.8	49	60.2	1	3	292	0.00	29.938 
20:30	81.2	81.2	81.9	50	60.8	1	3	292	0.00	29.941 
20:35	80.9	80.9	81.8	51	61.0	0	2	292	0.00	29.941 
20:40	80.5	80.5	81.4	51	60.7	1	3	292	0.00	29.941 
20:45	80.3	80.3	81.2	51	60.5	0	2	292	0.00	29.943 
20:50	80.1	80.1	81.2	53	61.4	0	2	292	0.00	29.943 
20:55	79.9	79.9	81.0	53	61.2	0	2	270	0.00	29.943 
21:00	79.6	79.6	80.8	54	61.5	0	0	---	0.00	29.941 
21:05	79.4	79.4	80.6	54	61.3	0	1	270	0.00	29.941 
21:10	79.2	79.2	80.4	54	61.1	0	1	270	0.00	29.941 
21:15	78.8	78.8	80.1	55	61.2	0	1	270	0.00	29.941 
21:20	78.5	78.5	79.9	56	61.5	0	1	270	0.00	29.941 
21:25	78.3	78.3	79.8	56	61.3	0	1	270	0.00	29.941 
21:30	78.1	78.1	79.6	57	61.6	0	1	270	0.00	29.943 
21:35	77.9	77.9	79.5	58	61.9	0	0	---	0.00	29.943 
21:40	77.4	77.4	79.1	58	61.4	0	0	---	0.00	29.943 
21:45	77.0	77.0	78.8	59	61.6	0	0	---	0.00	29.942 
21:50	76.7	76.7	78.5	59	61.3	0	0	---	0.00	29.942 
21:55	76.3	76.3	78.2	61	61.8	0	0	---	0.00	29.942 
22:00	76.0	76.0	78.0	62	62.0	0	0	---	0.00	29.947 
22:05	75.6	75.6	77.7	62	61.6	0	0	---	0.00	29.947 
22:10	75.3	75.3	77.4	63	61.8	0	0	---	0.00	29.947 
22:15	75.1	75.1	77.2	64	62.1	0	0	---	0.00	29.952 
22:20	74.6	74.6	74.6	65	62.0	0	0	---	0.00	29.952 
22:25	74.4	74.4	74.4	66	62.3	0	0	---	0.00	29.952 
22:30	74.0	74.0	74.0	67	62.3	0	0	---	0.00	29.961 
22:35	73.9	73.9	73.9	68	62.7	0	0	---	0.00	29.961 
22:40	73.7	73.7	73.7	69	62.9	0	0	---	0.00	29.961 
22:45	73.3	73.3	73.3	69	62.5	0	0	---	0.00	29.965 
22:50	73.3	73.3	73.3	69	62.5	0	0	---	0.00	29.965 
22:55	73.2	73.2	73.2	70	62.8	0	0	---	0.00	29.965 
23:00	73.2	73.2	73.2	70	62.8	0	0	---	0.00	29.970 
23:05	73.0	73.0	73.0	71	63.0	0	0	---	0.00	29.970 
23:10	73.0	73.0	73.0	71	63.0	0	0	---	0.00	29.970 
23:15	72.8	72.8	72.8	72	63.2	0	0	---	0.00	29.970 
23:20	72.7	72.7	72.7	73	63.5	0	0	---	0.00	29.970 
23:25	72.3	72.3	72.3	74	63.5	0	0	---	0.00	29.970 
23:30	72.3	72.3	72.3	74	63.5	0	0	---	0.00	29.972 
23:35	72.1	72.1	72.1	75	63.7	0	0	---	0.00	29.972 
23:40	71.8	71.8	71.8	76	63.8	0	0	---	0.00	29.972 
23:45	71.6	71.6	71.6	76	63.6	0	0	---	0.00	29.974 
23:50	71.3	71.3	71.3	76	63.3	0	0	---	0.00	29.974 
23:55	71.1	71.1	71.1	76	63.1	0	0	---	0.00	29.974 

CoCoRaHS
IN-AL-39
A2 Web Hosting
Creative Commons License
GoDaddy
search engine by freefind advanced

loaded 2018-11-15 14:33:23 • last modified 2010-11-18 10:43:29
Privacy PolicyDisclaimer
• wx.awcolley.com is powered by PmWiki v.2002016 •
• all content (unless otherwise noted) © 2018 A W Colley